Time,TemperatureF,DewpointF,PressureIn,WindDirection,WindDirectionDegrees,WindSpeedMPH,WindSpeedGustMPH,Humidity,HourlyPrecipIn,Conditions,Clouds,dailyrainin,SoftwareType,DateUTC
2015-08-04 00:00:00,73.8,55.1,29.85,SSE,155,5.0,5.0,52,0.00,,,0.00,Wunderground v.1.15,2015-08-04 07:00:00,
2015-08-04 00:05:00,73.7,55.0,29.85,SSE,155,5.0,5.0,52,0.00,,,0.00,Wunderground v.1.15,2015-08-04 07:05:00,
2015-08-04 00:15:00,73.4,54.7,29.85,SSE,158,6.0,11.0,52,0.00,,,0.00,Wunderground v.1.15,2015-08-04 07:15:00,
2015-08-04 00:25:00,72.9,54.8,29.86,SSE,158,2.0,6.0,53,0.00,,,0.00,Wunderground v.1.15,2015-08-04 07:25:00,
2015-08-04 00:30:00,72.6,54.5,29.86,SSE,158,1.0,3.0,53,0.00,,,0.00,Wunderground v.1.15,2015-08-04 07:30:00,
2015-08-04 00:40:00,72.2,54.6,29.86,SSE,158,1.0,1.0,54,0.00,,,0.00,Wunderground v.1.15,2015-08-04 07:40:00,
2015-08-04 00:50:00,72.0,54.4,29.86,SSE,158,2.0,2.0,54,0.00,,,0.00,Wunderground v.1.15,2015-08-04 07:50:00,
2015-08-04 01:00:00,71.8,54.3,29.86,SSE,158,4.0,8.0,54,0.00,,,0.00,Wunderground v.1.15,2015-08-04 08:00:00,
2015-08-04 01:10:00,71.4,54.4,29.86,SSE,158,5.0,7.0,55,0.00,,,0.00,Wunderground v.1.15,2015-08-04 08:10:00,
2015-08-04 01:15:00,71.1,54.1,29.86,SSE,158,5.0,7.0,55,0.00,,,0.00,Wunderground v.1.15,2015-08-04 08:15:00,
2015-08-04 01:25:00,70.8,54.3,29.87,SSE,158,5.0,7.0,56,0.00,,,0.00,Wunderground v.1.15,2015-08-04 08:25:00,
2015-08-04 01:35:00,70.3,53.9,29.87,SSE,158,1.0,3.0,56,0.00,,,0.00,Wunderground v.1.15,2015-08-04 08:35:00,
2015-08-04 01:40:00,69.9,54.0,29.87,SSE,158,1.0,3.0,57,0.00,,,0.00,Wunderground v.1.15,2015-08-04 08:40:00,
2015-08-04 01:50:00,69.2,53.8,29.87,SSE,158,1.0,1.0,58,0.00,,,0.00,Wunderground v.1.15,2015-08-04 08:50:00,
2015-08-04 02:00:00,68.3,54.3,29.87,SSE,158,0.0,0.0,61,0.00,,,0.00,Wunderground v.1.15,2015-08-04 09:00:00,
2015-08-04 02:10:00,67.0,54.8,29.88,SSE,158,0.0,0.0,65,0.00,,,0.00,Wunderground v.1.15,2015-08-04 09:10:00,
2015-08-04 02:20:00,65.7,55.2,29.88,SSE,158,0.0,0.0,69,0.00,,,0.00,Wunderground v.1.15,2015-08-04 09:20:00,
2015-08-04 02:30:00,64.7,55.5,29.88,SSE,158,0.0,0.0,72,0.00,,,0.00,Wunderground v.1.15,2015-08-04 09:30:00,
2015-08-04 02:35:00,64.4,55.6,29.88,SSE,158,0.0,0.0,73,0.00,,,0.00,Wunderground v.1.15,2015-08-04 09:35:00,
2015-08-04 02:45:00,63.8,55.7,29.89,SSE,158,0.0,0.0,75,0.00,,,0.00,Wunderground v.1.15,2015-08-04 09:45:00,
2015-08-04 02:55:00,63.0,55.3,29.89,SSE,158,0.0,0.0,76,0.00,,,0.00,Wunderground v.1.15,2015-08-04 09:55:00,
2015-08-04 03:00:00,62.8,55.5,29.89,SSE,158,0.0,0.0,77,0.00,,,0.00,Wunderground v.1.15,2015-08-04 10:00:00,
2015-08-04 03:10:00,62.5,55.5,29.89,SSE,158,0.0,0.0,78,0.00,,,0.00,Wunderground v.1.15,2015-08-04 10:10:00,
2015-08-04 03:20:00,61.9,55.3,29.89,SSE,158,0.0,0.0,79,0.00,,,0.00,Wunderground v.1.15,2015-08-04 10:20:00,
2015-08-04 03:30:00,61.6,55.4,29.89,SSE,158,0.0,0.0,80,0.00,,,0.00,Wunderground v.1.15,2015-08-04 10:30:00,
2015-08-04 03:40:00,61.4,55.2,29.90,SSE,158,0.0,0.0,80,0.00,,,0.00,Wunderground v.1.15,2015-08-04 10:40:00,
2015-08-04 03:50:00,61.6,55.4,29.90,SSE,158,0.0,0.0,80,0.00,,,0.00,Wunderground v.1.15,2015-08-04 10:50:00,
2015-08-04 04:00:00,61.4,55.2,29.90,SSE,158,0.0,0.0,80,0.00,,,0.00,Wunderground v.1.15,2015-08-04 11:00:00,
2015-08-04 04:10:00,61.0,55.1,29.90,SSE,158,0.0,0.0,81,0.00,,,0.00,Wunderground v.1.15,2015-08-04 11:10:00,
2015-08-04 04:20:00,61.2,55.0,29.90,SSE,158,0.0,0.0,80,0.00,,,0.00,Wunderground v.1.15,2015-08-04 11:20:00,
2015-08-04 04:25:00,61.4,54.8,29.90,SSE,158,0.0,0.0,79,0.00,,,0.00,Wunderground v.1.15,2015-08-04 11:25:00,
2015-08-04 04:35:00,61.6,54.7,29.90,SSE,158,0.0,0.0,78,0.00,,,0.00,Wunderground v.1.15,2015-08-04 11:35:00,
2015-08-04 04:45:00,61.7,54.8,29.90,SSE,158,0.0,0.0,78,0.00,,,0.00,Wunderground v.1.15,2015-08-04 11:45:00,
2015-08-04 04:55:00,61.9,55.0,29.90,SSE,158,0.0,0.0,78,0.00,,,0.00,Wunderground v.1.15,2015-08-04 11:55:00,
2015-08-04 05:05:00,61.7,54.8,29.90,SSE,158,0.0,0.0,78,0.00,,,0.00,Wunderground v.1.15,2015-08-04 12:05:00,
2015-08-04 05:15:00,61.4,54.5,29.90,SSE,158,0.0,0.0,78,0.00,,,0.00,Wunderground v.1.15,2015-08-04 12:15:00,
2015-08-04 05:25:00,61.1,54.9,29.90,SSE,158,0.0,0.0,80,0.00,,,0.00,Wunderground v.1.15,2015-08-04 12:25:00,
2015-08-04 05:30:00,60.9,54.7,29.90,SSE,158,0.0,0.0,80,0.00,,,0.00,Wunderground v.1.15,2015-08-04 12:30:00,
2015-08-04 05:40:00,59.9,53.7,29.90,SSE,158,0.0,0.0,80,0.00,,,0.00,Wunderground v.1.15,2015-08-04 12:40:00,
2015-08-04 05:50:00,59.1,53.3,29.90,SSE,158,0.0,0.0,81,0.00,,,0.00,Wunderground v.1.15,2015-08-04 12:50:00,
2015-08-04 06:00:00,58.6,52.8,29.91,SSE,158,0.0,0.0,81,0.00,,,0.00,Wunderground v.1.15,2015-08-04 13:00:00,
2015-08-04 06:10:00,58.1,52.3,29.91,SSE,158,0.0,0.0,81,0.00,,,0.00,Wunderground v.1.15,2015-08-04 13:10:00,
2015-08-04 06:20:00,57.8,51.7,29.91,SSE,158,0.0,0.0,80,0.00,,,0.00,Wunderground v.1.15,2015-08-04 13:20:00,
2015-08-04 06:30:00,57.7,51.6,29.91,SSE,158,0.0,0.0,80,0.00,,,0.00,Wunderground v.1.15,2015-08-04 13:30:00,
2015-08-04 06:35:00,57.7,51.9,29.91,SSE,158,0.0,0.0,81,0.00,,,0.00,Wunderground v.1.15,2015-08-04 13:35:00,
2015-08-04 06:45:00,57.8,52.3,29.92,SSE,158,0.0,0.0,82,0.00,,,0.00,Wunderground v.1.15,2015-08-04 13:45:00,
2015-08-04 06:55:00,58.0,52.9,29.92,SSE,158,0.0,0.0,83,0.00,,,0.00,Wunderground v.1.15,2015-08-04 13:55:00,
2015-08-04 07:05:00,58.9,54.1,29.92,SSE,158,0.0,0.0,84,0.00,,,0.00,Wunderground v.1.15,2015-08-04 14:05:00,
2015-08-04 07:15:00,60.4,54.9,29.93,SSE,158,0.0,0.0,82,0.00,,,0.00,Wunderground v.1.15,2015-08-04 14:15:00,
2015-08-04 07:25:00,62.0,55.8,29.93,SSE,158,0.0,0.0,80,0.00,,,0.00,Wunderground v.1.15,2015-08-04 14:25:00,
2015-08-04 07:35:00,63.5,55.8,29.92,SSE,158,0.0,0.0,76,0.00,,,0.00,Wunderground v.1.15,2015-08-04 14:35:00,
2015-08-04 07:45:00,64.3,55.8,29.93,SSE,158,0.0,0.0,74,0.00,,,0.00,Wunderground v.1.15,2015-08-04 14:45:00,
2015-08-04 07:55:00,64.5,56.0,29.93,SSE,158,0.0,0.0,74,0.00,,,0.00,Wunderground v.1.15,2015-08-04 14:55:00,
2015-08-04 08:05:00,65.3,56.4,29.92,SSE,158,0.0,0.0,73,0.00,,,0.00,Wunderground v.1.15,2015-08-04 15:05:00,
2015-08-04 08:15:00,65.7,56.8,29.93,SSE,158,0.0,0.0,73,0.00,,,0.00,Wunderground v.1.15,2015-08-04 15:15:00,
2015-08-04 08:25:00,65.6,56.7,29.93,SSE,158,0.0,0.0,73,0.00,,,0.00,Wunderground v.1.15,2015-08-04 15:25:00,
2015-08-04 08:35:00,65.6,57.1,29.93,SSE,158,0.0,0.0,74,0.00,,,0.00,Wunderground v.1.15,2015-08-04 15:35:00,
2015-08-04 08:40:00,65.9,57.7,29.93,SSE,158,0.0,0.0,75,0.00,,,0.00,Wunderground v.1.15,2015-08-04 15:40:00,
2015-08-04 08:50:00,66.6,57.3,29.93,SSE,158,0.0,0.0,72,0.00,,,0.00,Wunderground v.1.15,2015-08-04 15:50:00,
2015-08-04 09:00:00,66.8,57.1,29.93,SSE,158,0.0,0.0,71,0.00,,,0.00,Wunderground v.1.15,2015-08-04 16:00:00,
2015-08-04 09:10:00,67.4,57.7,29.92,SSE,158,0.0,0.0,71,0.00,,,0.00,Wunderground v.1.15,2015-08-04 16:10:00,
2015-08-04 09:20:00,67.6,57.5,29.92,SSE,158,0.0,0.0,70,0.00,,,0.00,Wunderground v.1.15,2015-08-04 16:20:00,
2015-08-04 09:30:00,68.7,57.7,29.91,SSE,158,0.0,0.0,68,0.00,,,0.00,Wunderground v.1.15,2015-08-04 16:30:00,
2015-08-04 09:40:00,69.6,57.3,29.91,SSE,158,0.0,0.0,65,0.00,,,0.00,Wunderground v.1.15,2015-08-04 16:40:00,
2015-08-04 09:45:00,69.4,58.0,29.91,SSE,158,0.0,0.0,67,0.00,,,0.00,Wunderground v.1.15,2015-08-04 16:45:00,
2015-08-04 10:05:00,71.9,59.5,29.91,SSE,158,0.0,0.0,65,0.00,,,0.00,Wunderground v.1.15,2015-08-04 17:05:00,
2015-08-04 10:15:00,71.8,58.1,29.92,SSE,158,1.0,3.0,62,0.00,,,0.00,Wunderground v.1.15,2015-08-04 17:15:00,
2015-08-04 10:25:00,71.5,58.7,29.92,SSE,158,1.0,1.0,64,0.00,,,0.00,Wunderground v.1.15,2015-08-04 17:25:00,
2015-08-04 10:35:00,71.7,57.5,29.91,SSE,158,0.0,0.0,61,0.00,,,0.00,Wunderground v.1.15,2015-08-04 17:35:00,
2015-08-04 10:45:00,72.3,58.1,29.91,SSE,158,2.0,2.0,61,0.00,,,0.00,Wunderground v.1.15,2015-08-04 17:45:00,
2015-08-04 10:50:00,71.9,57.7,29.91,SSE,158,3.0,3.0,61,0.00,,,0.00,Wunderground v.1.15,2015-08-04 17:50:00,
2015-08-04 10:55:00,72.3,58.5,29.91,SSE,158,1.0,3.0,62,0.00,,,0.00,Wunderground v.1.15,2015-08-04 17:55:00,
2015-08-04 11:05:00,72.7,58.5,29.92,SSE,158,1.0,3.0,61,0.00,,,0.00,Wunderground v.1.15,2015-08-04 18:05:00,
2015-08-04 11:15:00,73.0,58.3,29.92,SSE,158,2.0,6.0,60,0.00,,,0.00,Wunderground v.1.15,2015-08-04 18:15:00,
2015-08-04 11:25:00,73.8,59.5,29.92,SSE,158,1.0,5.0,61,0.00,,,0.00,Wunderground v.1.15,2015-08-04 18:25:00,
2015-08-04 11:35:00,74.0,58.8,29.92,SSE,158,0.0,1.0,59,0.00,,,0.00,Wunderground v.1.15,2015-08-04 18:35:00,
2015-08-04 11:45:00,74.5,60.2,29.92,SSE,158,0.0,0.0,61,0.00,,,0.00,Wunderground v.1.15,2015-08-04 18:45:00,
2015-08-04 11:50:00,74.4,59.6,29.92,SSE,158,0.0,2.0,60,0.00,,,0.00,Wunderground v.1.15,2015-08-04 18:50:00,
2015-08-04 12:00:00,74.2,60.3,29.91,SSE,158,0.0,0.0,62,0.00,,,0.00,Wunderground v.1.15,2015-08-04 19:00:00,
2015-08-04 12:10:00,73.7,59.9,29.92,SSE,158,0.0,0.0,62,0.00,,,0.00,Wunderground v.1.15,2015-08-04 19:10:00,
2015-08-04 12:15:00,73.9,60.1,29.92,SSE,158,0.0,0.0,62,0.00,,,0.00,Wunderground v.1.15,2015-08-04 19:15:00,
2015-08-04 12:25:00,73.7,59.4,29.91,SSE,158,0.0,3.0,61,0.00,,,0.00,Wunderground v.1.15,2015-08-04 19:25:00,
2015-08-04 12:35:00,73.9,60.5,29.91,SSE,158,0.0,1.0,63,0.00,,,0.00,Wunderground v.1.15,2015-08-04 19:35:00,
2015-08-04 12:45:00,74.0,60.2,29.91,SSE,158,0.0,5.0,62,0.00,,,0.00,Wunderground v.1.15,2015-08-04 19:45:00,
2015-08-04 12:55:00,75.0,60.6,29.91,SSE,158,2.0,5.0,61,0.00,,,0.00,Wunderground v.1.15,2015-08-04 19:55:00,
2015-08-04 13:05:00,75.3,59.5,29.91,SSE,158,3.0,13.0,58,0.00,,,0.00,Wunderground v.1.15,2015-08-04 20:05:00,
2015-08-04 13:15:00,75.9,60.1,29.91,SSE,158,6.0,11.0,58,0.00,,,0.00,Wunderground v.1.15,2015-08-04 20:15:00,
2015-08-04 13:20:00,75.7,59.9,29.91,SSE,158,5.0,10.0,58,0.00,,,0.00,Wunderground v.1.15,2015-08-04 20:20:00,
2015-08-04 13:30:00,75.2,59.9,29.90,SSE,158,6.0,6.0,59,0.00,,,0.00,Wunderground v.1.15,2015-08-04 20:30:00,
2015-08-04 13:40:00,74.8,60.0,29.90,SSE,158,4.0,4.0,60,0.00,,,0.00,Wunderground v.1.15,2015-08-04 20:40:00,
2015-08-04 13:50:00,75.1,60.3,29.90,SSE,158,3.0,3.0,60,0.00,,,0.00,Wunderground v.1.15,2015-08-04 20:50:00,
2015-08-04 14:00:00,75.7,60.8,29.92,SSE,158,3.0,9.0,60,0.00,,,0.00,Wunderground v.1.15,2015-08-04 21:00:00,
2015-08-04 14:10:00,76.4,61.0,29.92,SSE,158,6.0,6.0,59,0.00,,,0.00,Wunderground v.1.15,2015-08-04 21:10:00,
2015-08-04 14:20:00,76.2,60.3,29.92,SSE,162,4.0,4.0,58,0.00,,,0.00,Wunderground v.1.15,2015-08-04 21:20:00,
2015-08-04 14:25:00,75.8,60.0,29.92,SSE,162,4.0,5.0,58,0.00,,,0.00,Wunderground v.1.15,2015-08-04 21:25:00,
2015-08-04 14:35:00,75.5,60.2,29.92,SSE,162,1.0,3.0,59,0.00,,,0.00,Wunderground v.1.15,2015-08-04 21:35:00,
2015-08-04 14:45:00,75.4,61.0,29.92,SSE,162,0.0,1.0,61,0.00,,,0.00,Wunderground v.1.15,2015-08-04 21:45:00,
2015-08-04 14:55:00,74.9,61.5,29.92,SSE,162,2.0,2.0,63,0.00,,,0.00,Wunderground v.1.15,2015-08-04 21:55:00,
2015-08-04 15:05:00,74.8,61.4,29.92,SSE,162,1.0,1.0,63,0.00,,,0.00,Wunderground v.1.15,2015-08-04 22:05:00,
2015-08-04 15:10:00,75.0,61.1,29.91,SSE,162,2.0,2.0,62,0.00,,,0.00,Wunderground v.1.15,2015-08-04 22:10:00,
2015-08-04 15:20:00,75.9,61.0,29.92,SSE,162,6.0,7.0,60,0.00,,,0.00,Wunderground v.1.15,2015-08-04 22:20:00,
2015-08-04 15:30:00,75.7,60.4,29.91,SSE,162,6.0,6.0,59,0.00,,,0.00,Wunderground v.1.15,2015-08-04 22:30:00,
2015-08-04 15:40:00,75.4,60.1,29.90,SSE,162,4.0,4.0,59,0.00,,,0.00,Wunderground v.1.15,2015-08-04 22:40:00,
2015-08-04 15:50:00,75.7,58.4,29.90,SSE,162,5.0,5.0,55,0.00,,,0.00,Wunderground v.1.15,2015-08-04 22:50:00,
2015-08-04 16:00:00,75.6,57.8,29.90,SSE,162,4.0,4.0,54,0.00,,,0.00,Wunderground v.1.15,2015-08-04 23:00:00,
2015-08-04 16:10:00,75.7,58.4,29.91,SSE,162,1.0,1.0,55,0.00,,,0.00,Wunderground v.1.15,2015-08-04 23:10:00,
2015-08-04 16:15:00,75.7,58.9,29.92,SSE,162,1.0,1.0,56,0.00,,,0.00,Wunderground v.1.15,2015-08-04 23:15:00,
2015-08-04 16:25:00,75.9,59.6,29.92,SSE,162,2.0,2.0,57,0.00,,,0.00,Wunderground v.1.15,2015-08-04 23:25:00,
2015-08-04 16:30:00,76.0,60.6,29.92,SSE,162,2.0,2.0,59,0.00,,,0.00,Wunderground v.1.15,2015-08-04 23:30:00,
2015-08-04 16:40:00,75.8,60.4,29.92,SSE,168,5.0,13.0,59,0.00,,,0.00,Wunderground v.1.15,2015-08-04 23:40:00,
2015-08-04 16:50:00,75.5,59.7,29.91,SSE,166,7.0,11.0,58,0.00,,,0.00,Wunderground v.1.15,2015-08-04 23:50:00,
2015-08-04 16:55:00,75.5,59.2,29.90,SSE,166,5.0,11.0,57,0.00,,,0.00,Wunderground v.1.15,2015-08-04 23:55:00,
2015-08-04 17:05:00,75.6,59.3,29.90,SSE,166,1.0,4.0,57,0.00,,,0.00,Wunderground v.1.15,2015-08-05 00:05:00,
2015-08-04 17:15:00,75.8,59.0,29.90,SSE,166,2.0,6.0,56,0.00,,,0.00,Wunderground v.1.15,2015-08-05 00:15:00,
2015-08-04 17:25:00,75.9,58.6,29.89,SSE,166,2.0,2.0,55,0.00,,,0.00,Wunderground v.1.15,2015-08-05 00:25:00,
2015-08-04 17:40:00,76.1,58.2,29.89,SSE,166,3.0,3.0,54,0.00,,,0.00,Wunderground v.1.15,2015-08-05 00:40:00,